Search for airport 
image banner adimage banner adimage banner ad
image banner ad

E36 - Georgetown

Located in Georgetown, United States

ICAO - E36, IATA -

Data provided by Airmate  

General information

Coordinates: N38°55'16" W120°51'53"
Elevation is 2625 feet MSL.
Magnetic variation is 16° East
View others Airports in California

Operational data

Special qualification required
Current time UTC:
Current local time:
Weather at : KAUN - Auburn Muni ( 19 km )
METAR: KAUN 292135Z AUTO 26007KT 10SM CLR 36/11 A2993 RMK A01
View NOTAMs / SUP AIP / TFR affecting this airport [VIEW]
Communications frequencies: [VIEW]

Runways:

RWY identifierQFULength (ft)Width (ft)SurfaceLDA (ft)
16297962ASPH
34297962ASPH

Airport contact information

Address: Georgetown United States

Satellite view of E36